Latest  Newer  Older  Last 2 hours animation  Current image  Latest image 
Rain/snow radar  Infrared sat images 
Real-time lightning map

All time is UTC (add 2 hours to UTC in wintertime, 3 hours to UTC in DST for Latvia local time)

2017/12/17 11:20 EVRA 171120Z 21006KT 0800 0650 R18/1300D FZFG VV002 M00/M00 Q1012 R18/190095 NOSIG
2017/12/17 11:20 EVLA 171120Z AUTO 18005KT 9999 SCT024/// 02/02 Q1013
2017/12/17 11:20 EVVA 171120Z AUTO 20002KT 9999 OVC047 01/01 Q1012
2017/12/17 11:20 EYKA 171120Z 25007KT 6000 OVC006 01/M01 Q1014 R08/29//95
2017/12/17 11:20 EYPA 171120Z 21004KT 180V260 5000 BR SCT039 BKN045 01/01 Q1014 R19/21//95
2017/12/17 11:20 EYSA 171120Z 22007KT 9000 BKN004 BKN030 OVC062 01/01 Q1013 R14L/29//95 R14R/29//95 YLO2 TEMPO BKN005 YLO1
2017/12/17 11:20 EYVI 171120Z 21005KT 190V250 1900 BR OVC002 00/M00 Q1014 R01/2///95 TEMPO 1500 BR

2017/12/17 10:50 EEKE 171050Z 35007KT 9999 -RA FEW005 BKN016 OVC030 02/01 Q1011 R17/290095
2017/12/17 10:50 EEPU 171050Z 23005KT 9999 BKN004 02/02 Q1010
2017/12/17 11:20 EETN 171120Z 24005KT 6000 SCT011 OVC044 01/01 Q1009 R08/290195 NOSIG
2017/12/17 10:50 EETU 171050Z AUTO 22008KT 9999 SG FEW008/// SCT012/// OVC029/// 00/M02 Q1010
   RIGA AIRPORT     EVRA               56 55N  023 58E   10   X     T          6 LV
   LIEPAJA INTL     EVLA        26406  56 31N  021 06E    4   X                8 LV
   VENTPILS         EVVA               57 21N  021 33E    6   X                8 LV
   KAUNAS           EYKA               54 54N  023 55E   77   X     T          6 LT
   PALANGA INTL     EYPA               55 55N  021 03E   10   X                6 LT
   SIAULIAI INTL    EYSA               55 54N  023 24E  135   X     T          6 LT
   VILNIUS INTL     EYVI        26730  54 38N  025 17E  197   X     T          6 LT
   KARDLA           EEKA        26116  58 59N  022 50E    4   X                8 EE
   KURESSAARE       EEKE               58 14N  022 31E    4   X                8 EE
   PARNU            EEPU               58 25N  024 28E   14   X                8 EE
   TALLINN          EETN        26038  59 24N  024 49E   40   X     T          8 EE
   TARTU            EETU               58 19N  026 41E   67   X                8 EE

cloud coverage image from sat24.com and METAR data from weather.noaa.gov